Data for 07/03/2014

Time Sea-Level Adjusted Pressure Absolute Pressure Temperature Relative Humidity Dew Point   
(mb) (inHg) (mb) (inHg) (C) (F) (%) (C) (F)
00:05 1019 30.09 848 25.04 19.4 66.9 43 6.6 43.8
00:10 1019 30.09 848 25.04 19.3 66.8 43 6.7 44.1
00:15 1019 30.09 848 25.04 19.2 66.6 44 6.7 44
00:20 1019 30.09 848 25.04 19.2 66.5 44 6.7 44
00:25 1019 30.09 848 25.04 19.1 66.5 44 6.6 44
00:30 1019 30.09 848 25.04 19.1 66.5 44 6.6 43.8
00:35 1019 30.09 848 25.04 19.1 66.4 44 6.6 43.9
00:40 1019 30.09 848 25.04 19.1 66.4 44 6.6 43.9
00:45 1019 30.09 848 25.04 19.1 66.3 44 6.6 43.9
00:50 1019 30.09 849 25.07 19.1 66.3 44 6.6 43.9
00:55 1020 30.12 849 25.07 19 66.1 45 6.8 44.2
01:00 1020 30.12 849 25.07 18.8 65.8 45 6.9 44.4
01:05 1020 30.12 849 25.07 18.4 65.2 47 7 44.6
01:10 1020 30.12 849 25.07 18.2 64.8 47 6.9 44.5
01:15 1020 30.12 849 25.07 18.2 64.7 48 6.9 44.5
01:20 1020 30.12 849 25.07 18.2 64.7 47 6.9 44.4
01:25 1020 30.12 849 25.07 18.2 64.7 47 6.8 44.2
01:30 1020 30.12 849 25.07 18.2 64.8 47 6.8 44.2
01:35 1020 30.12 849 25.07 18.3 65 46 6.6 43.8
01:40 1020 30.12 849 25.07 18.4 65.2 46 6.7 44
01:45 1020 30.12 849 25.07 18.3 65 47 6.9 44.3
01:50 1019 30.09 849 25.07 18.1 64.5 47 6.8 44.3
01:55 1019 30.09 849 25.07 17.9 64.3 48 7 44.6
02:00 1019 30.09 849 25.07 17.5 63.6 50 7.2 45
02:05 1019 30.09 849 25.07 17.2 63 51 7 44.7
02:10 1019 30.09 849 25.07 17.3 63.1 50 6.7 44.1
02:15 1019 30.09 849 25.07 17.3 63.1 51 7.2 44.9
02:20 1019 30.09 849 25.07 17.1 62.7 51 7 44.6
02:25 1019 30.09 849 25.07 17.1 62.8 51 6.9 44.4
02:30 1019 30.09 848 25.04 17.1 62.7 52 7.2 44.9
02:35 1019 30.09 848 25.04 16.9 62.4 52 7.1 44.8
02:40 1019 30.09 848 25.04 16.7 62.1 52 6.9 44.3
02:45 1019 30.09 848 25.04 16.9 62.4 51 6.8 44.3
02:50 1019 30.09 848 25.04 17 62.6 51 6.9 44.5
02:55 1019 30.09 848 25.04 17.1 62.7 51 7 44.5
03:00 1019 30.09 848 25.04 17.1 62.8 51 6.9 44.5
03:05 1019 30.09 848 25.04 17.2 62.9 50 6.9 44.3
03:10 1019 30.09 848 25.04 17.2 62.9 51 7.1 44.8
03:15 1019 30.09 848 25.04 17 62.6 51 7 44.7
03:20 1019 30.09 848 25.04 17 62.6 52 7.2 45
03:25 1019 30.09 848 25.04 16.7 62 54 7.4 45.3
03:30 1019 30.09 848 25.04 16.5 61.8 53 7.2 44.9
03:35 1019 30.09 848 25.04 16.5 61.7 54 7.3 45.1
03:40 1019 30.09 849 25.07 16.3 61.4 55 7.3 45.2
03:45 1019 30.09 848 25.04 16.1 61 56 7.4 45.3
03:50 1019 30.09 849 25.07 16 60.8 56 7.3 45.1
03:55 1019 30.09 849 25.07 15.9 60.6 57 7.4 45.3
04:00 1019 30.09 849 25.07 15.7 60.2 58 7.4 45.4
04:05 1019 30.09 849 25.07 15.5 59.8 59 7.5 45.5
04:10 1019 30.09 849 25.07 15.2 59.4 59 7.5 45.4
04:15 1019 30.09 849 25.07 15.1 59.2 60 7.5 45.6
04:20 1019 30.09 849 25.07 15.2 59.3 60 7.5 45.5
04:25 1019 30.09 849 25.07 15.4 59.7 60 7.7 45.9
04:30 1019 30.09 849 25.07 15.1 59.2 61 7.7 45.9
04:35 1019 30.09 848 25.04 15 59 61 7.5 45.5
04:40 1019 30.09 848 25.04 15 59 61 7.7 45.8
04:45 1019 30.09 848 25.04 14.7 58.5 62 7.6 45.6
04:50 1019 30.09 848 25.04 14.7 58.4 62 7.4 45.4
04:55 1019 30.09 849 25.07 14.8 58.6 62 7.6 45.6
05:00 1019 30.09 848 25.04 14.9 58.8 61 7.4 45.3
05:05 1019 30.09 848 25.04 15 59 60 7.4 45.4
05:10 1019 30.09 848 25.04 15.2 59.3 59 7.4 45.2
05:15 1019 30.09 848 25.04 15.2 59.3 61 7.7 45.9
05:20 1019 30.09 848 25.04 15.1 59.1 61 7.6 45.6
05:25 1019 30.09 848 25.04 15.1 59.2 60 7.5 45.5
05:30 1019 30.09 848 25.04 15.2 59.3 59 7.4 45.3
05:35 1019 30.09 848 25.04 15.3 59.6 60 7.6 45.7
05:40 1019 30.09 848 25.04 15.4 59.7 59 7.5 45.5
05:45 1019 30.09 848 25.04 15.7 60.2 58 7.5 45.6
05:50 1019 30.09 849 25.07 15.9 60.6 57 7.5 45.6
05:55 1019 30.09 849 25.07 16 60.9 57 7.5 45.5
06:00 1019 30.09 849 25.07 16.3 61.4 56 7.7 45.8
06:05 1019 30.09 849 25.07 16.5 61.7 55 7.6 45.8
06:10 1019 30.09 849 25.07 16.6 61.9 55 7.8 46
06:15 1019 30.09 849 25.07 16.8 62.2 55 7.7 45.9
06:20 1019 30.09 849 25.07 16.7 62.1 55 7.7 45.8
06:25 1019 30.09 849 25.07 16.9 62.5 55 8 46.4
06:30 1019 30.09 849 25.07 17.1 62.7 55 8 46.4
06:35 1019 30.09 849 25.07 17.3 63.2 55 8.2 46.8
06:40 1019 30.09 849 25.07 17.4 63.3 55 8.3 46.9
06:45 1019 30.09 849 25.07 17.5 63.4 55 8.4 47.2
06:50 1019 30.09 848 25.04 17.6 63.7 54 8.4 47.1
06:55 1019 30.09 848 25.04 18.1 64.6 53 8.6 47.5
07:00 1019 30.09 848 25.04 18.5 65.3 53 8.8 47.8
07:05 1019 30.09 848 25.04 18.8 65.8 52 8.8 47.8
07:10 1019 30.09 848 25.04 19 66.3 52 9 48.2
07:15 1019 30.09 848 25.04 19.3 66.8 50 8.8 47.8
07:20 1019 30.09 848 25.04 19.6 67.2 49 8.6 47.4
07:25 1019 30.09 848 25.04 20 67.9 48 8.7 47.7
07:30 1019 30.09 848 25.04 20.3 68.5 47 8.7 47.7
07:35 1019 30.09 849 25.07 20.5 68.9 46 8.7 47.7
07:40 1019 30.09 849 25.07 20.9 69.7 46 8.9 48
07:45 1019 30.09 849 25.07 21 69.7 45 8.7 47.6
07:50 1019 30.09 848 25.04 21.5 70.7 44 9 48.2
07:55 1019 30.09 848 25.04 21.6 70.9 44 8.9 48
08:00 1019 30.09 848 25.04 21.6 70.9 45 9.3 48.7
08:05 1019 30.09 848 25.04 21.9 71.5 44 9.1 48.5
08:10 1019 30.09 848 25.04 22.3 72.2 45 9.9 49.9
08:15 1019 30.09 848 25.04 22.3 72.1 44 9.6 49.2
08:20 1019 30.09 848 25.04 22.1 71.7 43 9.2 48.5
08:25 1019 30.09 848 25.04 22.3 72.1 43 9.3 48.7
08:30 1019 30.09 848 25.04 22.8 73.1 42 9.3 48.7
08:35 1019 30.09 848 25.04 22.7 72.9 40 8.6 47.5
08:40 1019 30.09 848 25.04 23.3 73.9 40 9.3 48.7
08:45 1019 30.09 848 25.04 22.8 73.1 41 9 48.2
08:50 1019 30.09 848 25.04 23.2 73.8 40 9.2 48.5
08:55 1019 30.09 848 25.04 23.7 74.7 39 9.1 48.4
09:00 1019 30.09 848 25.04 23.5 74.3 40 9.3 48.8
09:05 1019 30.09 848 25.04 23.3 74 41 9.4 48.9
09:10 1019 30.09 848 25.04 23.6 74.4 39 9.1 48.4
09:15 1019 30.09 848 25.04 24.2 75.5 38 9.2 48.5
09:20 1019 30.09 848 25.04 24.4 75.9 37 9 48.3
09:25 1019 30.09 848 25.04 24.4 75.8 37 8.9 48.1
09:30 1019 30.09 848 25.04 24.7 76.5 35 8.6 47.5
09:35 1019 30.09 848 25.04 25.4 77.7 33 8.3 46.9
09:40 1019 30.09 848 25.04 25.8 78.4 33 8.7 47.6
09:45 1019 30.09 848 25.04 26.2 79.2 33 8.9 48.1
09:50 1019 30.09 848 25.04 26.5 79.7 34 9.5 49
09:55 1019 30.09 848 25.04 25.3 77.5 35 9 48.1
10:00 1019 30.09 848 25.04 25.6 78.1 33 8.2 46.8
10:05 1019 30.09 848 25.04 26 78.7 34 9.2 48.5
10:10 1019 30.09 848 25.04 26 78.7 33 8.5 47.4
10:15 1019 30.09 848 25.04 26.2 79.1 33 9 48.2
10:20 1019 30.09 848 25.04 26.1 79.1 33 8.8 47.9
10:25 1019 30.09 848 25.04 25.4 77.7 34 8.8 47.8
10:30 1018 30.06 848 25.04 25.3 77.6 33 8.2 46.8
10:35 1019 30.09 848 25.04 25.8 78.4 35 9.3 48.8
10:40 1018 30.06 848 25.04 25.8 78.4 34 8.8 47.9
10:45 1018 30.06 848 25.04 25.5 78 34 8.7 47.6
10:50 1018 30.06 848 25.04 25.9 78.6 33 8.6 47.5
10:55 1019 30.09 848 25.04 26.3 79.3 33 9.1 48.3
11:00 1019 30.09 848 25.04 26.1 79 33 8.8 47.8
11:05 1019 30.09 848 25.04 26.3 79.4 32 8.6 47.5
11:10 1019 30.09 848 25.04 27.1 80.8 32 9.2 48.5
11:15 1019 30.09 848 25.04 27.2 81 32 9.5 49.1
11:20 1019 30.09 848 25.04 27 80.7 32 9.1 48.4
11:25 1019 30.09 848 25.04 27.4 81.3 31 9.1 48.3
11:30 1019 30.09 848 25.04 27.5 81.6 30 8.5 47.2
11:35 1019 30.09 848 25.04 26.9 80.5 33 9.4 48.9
11:40 1019 30.09 848 25.04 27.1 80.8 31 8.6 47.5
11:45 1019 30.09 848 25.04 28.1 82.6 29 8.6 47.5
11:50 1019 30.09 848 25.04 28.5 83.3 28 8.6 47.6
11:55 1019 30.09 848 25.04 28.6 83.6 27 8.2 46.8
12:00 1019 30.09 848 25.04 28.2 82.8 29 8.5 47.4
12:05 1019 30.09 848 25.04 28.5 83.4 27 7.8 46.1
12:10 1019 30.09 848 25.04 28.2 82.8 27 8 46.4
12:15 1019 30.09 848 25.04 28.3 83 29 9.1 48.5
12:20 1018 30.06 848 25.04 28 82.3 28 7.9 46.3
12:25 1018 30.06 848 25.04 28.6 83.4 29 9.1 48.4
12:30 1018 30.06 847 25.01 29.4 85 30 10.2 50.4
12:35 1018 30.06 847 25.01 28.2 82.8 32 10.2 50.3
12:40 1018 30.06 847 25.01 27.7 81.9 31 9.3 48.7
12:45 1018 30.06 847 25.01 28.8 83.9 29 9.4 48.9
12:50 1018 30.06 847 25.01 29.7 85.4 27 9.3 48.7
12:55 1018 30.06 847 25.01 30.2 86.3 28 9.9 49.7
13:00 1018 30.06 847 25.01 30.2 86.4 28 10.2 50.4
13:05 1018 30.06 847 25.01 29.7 85.4 29 10.3 50.5
13:10 1018 30.06 847 25.01 28.6 83.4 30 9.4 48.9
13:15 1018 30.06 847 25.01 29.8 85.7 26 8.7 47.6
13:20 1018 30.06 847 25.01 30.2 86.3 26 8.9 48
13:25 1018 30.06 847 25.01 30.6 87 24 8.1 46.6
13:30 1018 30.06 847 25.01 30.9 87.7 25 8.9 48.1
13:35 1018 30.06 847 25.01 30.6 87 25 8.8 47.8
13:40 1018 30.06 847 25.01 30.9 87.5 25 9 48.2
13:45 1018 30.06 847 25.01 30.2 86.4 27 9.7 49.4
13:50 1018 30.06 847 25.01 29.5 85.1 28 9.4 49
13:55 1018 30.06 847 25.01 29.1 84.4 25 7.2 44.9
14:00 1018 30.06 847 25.01 28.7 83.6 28 8.5 47.3
14:05 1018 30.06 847 25.01 28.3 82.9 29 8.8 47.9
14:10 1018 30.06 847 25.01 27.9 82.3 29 8.4 47.1
14:15 1018 30.06 847 25.01 28 82.5 28 8.2 46.7
14:20 1018 30.06 847 25.01 28.2 82.7 27 7.7 45.9
14:25 1018 30.06 847 25.01 28.5 83.3 28 8.4 47
14:30 1018 30.06 847 25.01 28.9 84 30 10.1 50.2
14:35 1018 30.06 847 25.01 28.4 83.2 31 10.1 50.2
14:40 1018 30.06 847 25.01 28.2 82.7 31 9.9 49.9
14:45 1018 30.06 847 25.01 28.5 83.3 30 9.4 48.9
14:50 1018 30.06 847 25.01 28.6 83.5 30 9.9 49.8
14:55 1018 30.06 847 25.01 28.4 83.2 33 10.9 51.6
15:00 1017 30.03 847 25.01 28.6 83.5 31 10.3 50.5
15:05 1017 30.03 847 25.01 28.4 83.1 38 12.8 55.1
15:10 1018 30.06 847 25.01 27.4 81.4 37 11.5 52.8
15:15 1018 30.06 847 25.01 26.8 80.2 42 13 55.3
15:20 1017 30.03 847 25.01 26.9 80.4 38 11.8 53.2
15:25 1017 30.03 847 25.01 27.4 81.4 38 12.1 53.7
15:30 1017 30.03 847 25.01 27.1 80.8 43 13.8 56.9
15:35 1018 30.06 847 25.01 26.6 79.9 45 13.8 56.9
15:40 1018 30.06 847 25.01 25.9 78.6 50 14.9 58.9
15:45 1018 30.06 848 25.04 25 77 34 8.3 47
15:50 1018 30.06 848 25.04 23.8 74.8 37 8.2 46.8
15:55 1018 30.06 847 25.01 22.8 73 32 5.4 41.8
16:00 1018 30.06 847 25.01 23.4 74.1 33 6.4 43.5
16:05 1017 30.03 847 25.01 23.1 73.6 36 7.6 45.7
16:10 1017 30.03 846 24.98 23.4 74.1 33 6.5 43.7
16:15 1017 30.03 846 24.98 24.2 75.6 33 7.3 45.1
16:20 1017 30.03 846 24.98 24.4 75.9 37 9.2 48.5
16:25 1017 30.03 847 25.01 23.8 74.9 37 8.4 47.1
16:30 1017 30.03 846 24.98 24.5 76.2 42 10.9 51.6
16:35 1017 30.03 846 24.98 25.5 77.8 39 10.8 51.5
16:40 1017 30.03 846 24.98 26.1 79.1 40 11.6 52.8
16:45 1017 30.03 846 24.98 25.6 78.1 40 11.4 52.5
16:50 1017 30.03 846 24.98 24.7 76.5 39 10 49.9
16:55 1017 30.03 846 24.98 25 77 41 11 51.9
17:00 1017 30.03 846 24.98 25 77 42 11.3 52.3
17:05 1017 30.03 846 24.98 25.1 77.3 37 9.6 49.2
17:10 1017 30.03 846 24.98 25.3 77.5 36 9.5 49.2
17:15 1017 30.03 847 25.01 25.2 77.3 39 10.5 50.9
17:20 1017 30.03 847 25.01 25 77 40 10.5 50.9
17:25 1017 30.03 847 25.01 24.9 76.9 35 8.5 47.4
17:30 1018 30.06 847 25.01 25.3 77.6 34 8.5 47.3
17:35 1018 30.06 847 25.01 25.8 78.4 31 7.6 45.6
17:40 1018 30.06 847 25.01 25.9 78.6 31 7.6 45.6
17:45 1018 30.06 847 25.01 25.6 78.1 32 7.8 46
17:50 1018 30.06 848 25.04 25.3 77.6 33 8.2 46.8
17:55 1018 30.06 848 25.04 25.1 77.2 32 7.4 45.2
18:00 1018 30.06 848 25.04 24.9 76.7 30 6.4 43.5
18:05 1019 30.09 848 25.04 24.9 76.9 28 5.5 41.8
18:10 1019 30.09 848 25.04 25.2 77.3 27 5.2 41.3
18:15 1019 30.09 848 25.04 25.2 77.4 27 5.1 41.1
18:20 1019 30.09 848 25.04 25.3 77.6 25 4.4 39.9
18:25 1019 30.09 848 25.04 25.4 77.6 26 4.5 40
18:30 1019 30.09 848 25.04 25 77 27 5 40.9
18:35 1019 30.09 848 25.04 24.9 76.9 26 4.4 40
18:40 1019 30.09 848 25.04 24.9 76.8 27 4.9 40.8
18:45 1019 30.09 848 25.04 24.8 76.7 26 4.4 39.9
18:50 1019 30.09 848 25.04 24.6 76.3 26 4.1 39.3
18:55 1019 30.09 848 25.04 24.5 76.1 25 3.3 37.9
19:00 1019 30.09 848 25.04 24.5 76.2 24 3.1 37.6
19:05 1019 30.09 848 25.04 24.7 76.4 23 2.4 36.4
19:10 1019 30.09 848 25.04 24.6 76.3 24 2.9 37.3
19:15 1018 30.06 848 25.04 24.5 76.1 26 3.9 38.9
19:20 1018 30.06 848 25.04 23.7 74.6 34 7 44.5
19:25 1018 30.06 847 25.01 22.6 72.6 37 7.2 44.9
19:30 1018 30.06 848 25.04 22.3 72.1 38 7.6 45.8
19:35 1018 30.06 847 25.01 22.3 72.2 38 7.4 45.3
19:40 1018 30.06 847 25.01 22.4 72.3 37 7.2 44.9
19:45 1018 30.06 847 25.01 22.3 72.1 36 6.7 44.1
19:50 1018 30.06 848 25.04 22.5 72.5 36 6.7 44.1
19:55 1018 30.06 847 25.01 22.6 72.7 38 7.8 46
20:00 1018 30.06 847 25.01 22.2 72 39 7.8 46
20:05 1018 30.06 847 25.01 21.6 70.9 43 8.5 47.4
20:10 1018 30.06 847 25.01 21.2 70.1 41 7.6 45.6
20:15 1018 30.06 847 25.01 21.1 69.9 42 7.7 45.8
20:20 1018 30.06 847 25.01 21.1 69.9 42 8 46.4
20:25 1018 30.06 848 25.04 20.8 69.4 45 8.7 47.7
20:30 1018 30.06 848 25.04 20.1 68.1 42 6.8 44.3
20:35 1018 30.06 848 25.04 20.5 68.8 42 7.2 44.9
20:40 1018 30.06 848 25.04 20.3 68.6 42 7.3 45.1
20:45 1019 30.09 848 25.04 20.4 68.7 41 6.7 44
20:50 1019 30.09 848 25.04 20.6 69 40 6.5 43.7
20:55 1019 30.09 848 25.04 20.7 69.3 40 6.7 44
21:00 1019 30.09 848 25.04 20.6 69 46 8.7 47.6
21:05 1019 30.09 848 25.04 20.3 68.6 39 6.1 43
21:10 1019 30.09 848 25.04 20.7 69.3 37 5.7 42.3
21:15 1019 30.09 848 25.04 20.8 69.5 42 7.5 45.5
21:20 1019 30.09 848 25.04 20.2 68.3 40 6.2 43.1
21:25 1019 30.09 848 25.04 20.4 68.8 38 5.7 42.3
21:30 1019 30.09 848 25.04 20.5 69 39 6.1 43
21:35 1019 30.09 848 25.04 20.4 68.7 39 6.3 43.3
21:40 1019 30.09 848 25.04 20.1 68.2 41 6.5 43.6
21:45 1019 30.09 848 25.04 19.7 67.4 43 7 44.5
21:50 1019 30.09 848 25.04 19.3 66.7 43 6.4 43.6
21:55 1019 30.09 849 25.07 19.5 67.1 42 6.4 43.6
22:00 1019 30.09 848 25.04 19.4 66.9 42 6.2 43.1
22:05 1019 30.09 848 25.04 19.4 67 43 6.6 43.8
22:10 1020 30.12 849 25.07 19.2 66.5 43 6.4 43.5
22:15 1020 30.12 849 25.07 19.3 66.7 41 5.9 42.7
22:20 1020 30.12 849 25.07 19.5 67 41 6 42.7
22:25 1020 30.12 849 25.07 19.5 67.2 40 5.8 42.4
22:30 1020 30.12 849 25.07 19.6 67.2 40 5.7 42.2
22:35 1020 30.12 849 25.07 19.5 67 47 7.9 46.2
22:40 1020 30.12 849 25.07 18.9 66.1 46 7.2 45
22:45 1020 30.12 849 25.07 18.6 65.4 45 6.7 44.1
22:50 1020 30.12 849 25.07 18.4 65 45 6.4 43.6
22:55 1019 30.09 849 25.07 18.2 64.8 46 6.5 43.6
23:00 1019 30.09 848 25.04 18.2 64.8 43 5.6 42.1
23:05 1019 30.09 849 25.07 18.6 65.4 44 6.1 43
23:10 1020 30.12 849 25.07 18.7 65.6 44 6.2 43.1
23:15 1020 30.12 849 25.07 19 66.2 43 6.1 43
23:20 1020 30.12 849 25.07 18.8 65.8 43 6.2 43.1
23:25 1020 30.12 849 25.07 18.1 64.5 46 6.4 43.5
23:30 1020 30.12 849 25.07 18 64.3 44 5.7 42.3
23:35 1020 30.12 849 25.07 18.1 64.5 45 6 42.9
23:40 1020 30.12 849 25.07 18 64.5 45 6.1 43
23:45 1020 30.12 849 25.07 18.1 64.6 45 6 42.9
23:50 1019 30.09 849 25.07 18.2 64.8 43 5.6 42.1
23:55 1019 30.09 849 25.07 18.4 65.1 45 6.4 43.6
24:00 1019 30.09 849 25.07 18.1 64.6 46 6.4 43.4